Time;durP1;ratioP1;P1;durP2;ratioP2;P2;SDS_P1;SDS_P2;PMS_P1;PMS_P2;Temp;Humidity;BMP_temperature;BMP_pressure;BME280_temperature;BME280_humidity;BME280_pressure;Samples;Min_cycle;Max_cycle;Signal;HPM_P1;HPM_P2
2023/05/30 00:01:06;;;;;;;6.27;4.23;;;;;;;;;;5050425;28;20182;-71
2023/05/30 00:03:33;;;;;;;4.20;3.60;;;;;;;;;;5049153;28;20272;-70
2023/05/30 00:05:58;;;;;;;5.53;3.60;;;;;;;;;;5048394;28;20190;-70
2023/05/30 00:08:23;;;;;;;4.73;3.27;;;;;;;;;;5037927;28;20189;-70
2023/05/30 00:10:48;;;;;;;6.63;3.37;;;;;;;;;;5047407;28;20175;-71
2023/05/30 00:13:14;;;;;;;5.40;3.77;;;;;;;;;;5035918;28;20287;-70
2023/05/30 00:15:40;;;;;;;7.80;4.50;;;;;;;;;;5034978;28;20189;-70
2023/05/30 00:18:05;;;;;;;4.77;4.00;;;;;;;;;;5038263;28;20177;-70
2023/05/30 00:20:31;;;;;;;4.93;3.63;;;;;;;;;;5047495;28;20190;-70
2023/05/30 00:22:59;;;;;;;6.57;3.93;;;;;;;;;;5049697;28;20212;-70
2023/05/30 00:25:24;;;;;;;4.13;3.40;;;;;;;;;;5048366;28;20188;-70
2023/05/30 00:27:50;;;;;;;4.37;3.97;;;;;;;;;;5029451;28;20178;-70
2023/05/30 00:30:16;;;;;;;4.00;3.60;;;;;;;;;;5028489;28;20201;-70
2023/05/30 00:32:41;;;;;;;5.27;3.77;;;;;;;;;;5047029;28;20208;-70
2023/05/30 00:35:06;;;;;;;5.23;3.83;;;;;;;;;;5035568;28;20181;-70
2023/05/30 00:37:31;;;;;;;6.07;3.67;;;;;;;;;;5032170;28;20239;-70
2023/05/30 00:39:57;;;;;;;3.93;3.50;;;;;;;;;;5024984;28;20189;-70
2023/05/30 00:42:22;;;;;;;5.83;3.90;;;;;;;;;;5049900;28;20240;-70
2023/05/30 00:44:47;;;;;;;6.53;3.63;;;;;;;;;;5048943;28;20189;-70
2023/05/30 00:47:13;;;;;;;5.97;4.00;;;;;;;;;;5049030;28;20168;-70
2023/05/30 00:49:38;;;;;;;4.57;3.73;;;;;;;;;;5030158;28;20195;-72
2023/05/30 00:52:04;;;;;;;6.20;3.50;;;;;;;;;;5049479;28;20176;-73
2023/05/30 00:54:29;;;;;;;4.93;3.70;;;;;;;;;;5033736;28;20207;-70
2023/05/30 00:56:54;;;;;;;5.67;3.83;;;;;;;;;;5030585;28;20304;-70
2023/05/30 00:59:20;;;;;;;5.10;3.80;;;;;;;;;;5047504;28;20212;-70
2023/05/30 01:01:45;;;;;;;5.40;3.63;;;;;;;;;;5049296;28;20193;-70
2023/05/30 01:04:10;;;;;;;5.87;4.20;;;;;;;;;;5049611;28;20189;-70
2023/05/30 01:06:37;;;;;;;6.67;4.07;;;;;;;;;;5038263;28;20191;-70
2023/05/30 01:09:04;;;;;;;4.80;3.60;;;;;;;;;;5046898;28;20264;-70
2023/05/30 01:11:36;;;;;;;5.97;3.57;;;;;;;;;;5043399;28;20185;-70
2023/05/30 01:14:18;;;;;;;4.53;3.70;;;;;;;;;;5048051;28;20201;-70
2023/05/30 01:16:46;;;;;;;4.33;3.57;;;;;;;;;;5049207;28;20196;-70
2023/05/30 01:19:12;;;;;;;5.00;4.50;;;;;;;;;;5049947;28;20175;-70
2023/05/30 01:21:38;;;;;;;5.27;3.60;;;;;;;;;;5049954;28;20267;-70
2023/05/30 01:24:21;;;;;;;5.40;4.00;;;;;;;;;;5035681;28;20181;-70
2023/05/30 01:27:06;;;;;;;5.17;3.83;;;;;;;;;;5031427;28;20205;-70
2023/05/30 01:29:32;;;;;;;7.23;4.70;;;;;;;;;;5025685;28;20188;-70
2023/05/30 01:31:58;;;;;;;6.87;4.07;;;;;;;;;;5038594;28;20293;-70
2023/05/30 01:34:23;;;;;;;4.60;4.20;;;;;;;;;;5048765;28;20271;-70
2023/05/30 01:36:48;;;;;;;3.93;3.43;;;;;;;;;;5031805;28;20184;-70
2023/05/30 01:39:14;;;;;;;5.83;4.23;;;;;;;;;;5033280;28;20182;-70
2023/05/30 01:41:51;;;;;;;7.03;4.43;;;;;;;;;;5048111;28;20279;-70
2023/05/30 01:44:26;;;;;;;5.07;3.77;;;;;;;;;;5039567;28;20184;-70
2023/05/30 01:46:57;;;;;;;6.57;4.00;;;;;;;;;;5045410;28;20186;-70
2023/05/30 01:49:32;;;;;;;6.20;4.20;;;;;;;;;;5048307;28;20184;-70
2023/05/30 01:52:01;;;;;;;4.37;3.83;;;;;;;;;;5049733;28;20272;-70
2023/05/30 01:54:28;;;;;;;6.03;3.87;;;;;;;;;;5048799;28;20203;-70
2023/05/30 01:56:54;;;;;;;4.40;3.57;;;;;;;;;;5048695;28;20230;-70
2023/05/30 01:59:20;;;;;;;5.30;4.00;;;;;;;;;;5036172;28;20183;-70
2023/05/30 02:01:46;;;;;;;6.47;3.87;;;;;;;;;;5047509;28;20186;-70
2023/05/30 02:04:11;;;;;;;5.80;3.90;;;;;;;;;;5033499;28;20202;-70
2023/05/30 02:06:37;;;;;;;6.17;4.17;;;;;;;;;;5052564;28;20194;-70
2023/05/30 02:09:02;;;;;;;5.07;3.97;;;;;;;;;;5051940;28;20172;-70
2023/05/30 02:11:27;;;;;;;5.70;3.80;;;;;;;;;;5039010;28;20179;-70
2023/05/30 02:13:52;;;;;;;4.27;3.63;;;;;;;;;;5052381;28;20211;-70
2023/05/30 02:16:18;;;;;;;4.47;4.03;;;;;;;;;;5051282;28;20202;-70
2023/05/30 02:18:44;;;;;;;6.87;3.87;;;;;;;;;;5049922;28;20191;-70
2023/05/30 02:21:10;;;;;;;4.97;4.53;;;;;;;;;;5049015;28;20178;-70
2023/05/30 02:23:36;;;;;;;8.73;4.13;;;;;;;;;;5042997;28;20179;-70
2023/05/30 02:26:01;;;;;;;4.80;4.03;;;;;;;;;;5051985;28;20182;-70
2023/05/30 02:28:26;;;;;;;5.97;4.27;;;;;;;;;;5038255;28;20187;-70
2023/05/30 02:30:51;;;;;;;5.10;3.90;;;;;;;;;;5051494;28;20170;-70
2023/05/30 02:33:16;;;;;;;7.20;3.97;;;;;;;;;;5034870;28;20205;-70
2023/05/30 02:35:42;;;;;;;6.20;3.93;;;;;;;;;;5048617;28;20175;-70
2023/05/30 02:38:07;;;;;;;5.40;4.10;;;;;;;;;;5051942;28;20184;-70
2023/05/30 02:40:32;;;;;;;7.37;4.47;;;;;;;;;;5051201;28;20206;-70
2023/05/30 02:42:57;;;;;;;4.80;4.07;;;;;;;;;;5051268;28;20186;-70
2023/05/30 02:45:22;;;;;;;6.17;4.07;;;;;;;;;;5034887;28;20183;-70
2023/05/30 02:47:47;;;;;;;6.57;3.80;;;;;;;;;;5051017;28;20184;-70
2023/05/30 02:50:13;;;;;;;5.53;4.17;;;;;;;;;;5032494;28;20321;-70
2023/05/30 02:52:38;;;;;;;6.53;4.73;;;;;;;;;;5050844;28;20231;-70
2023/05/30 02:55:04;;;;;;;6.60;4.30;;;;;;;;;;5051805;28;20177;-71
2023/05/30 02:57:30;;;;;;;5.13;3.90;;;;;;;;;;5051105;28;20223;-71
2023/05/30 02:59:55;;;;;;;5.17;3.80;;;;;;;;;;5050972;28;20183;-70
2023/05/30 03:02:20;;;;;;;6.10;4.40;;;;;;;;;;5034244;28;20195;-70
2023/05/30 03:04:46;;;;;;;4.77;4.17;;;;;;;;;;5038008;28;20182;-71
2023/05/30 03:07:17;;;;;;;7.20;4.07;;;;;;;;;;5050230;28;20276;-70
2023/05/30 03:09:42;;;;;;;5.00;4.07;;;;;;;;;;5031539;28;20241;-70
2023/05/30 03:12:07;;;;;;;5.07;4.53;;;;;;;;;;5052220;28;20182;-70
2023/05/30 03:14:33;;;;;;;5.83;3.97;;;;;;;;;;5040048;28;20205;-70
2023/05/30 03:16:58;;;;;;;6.27;4.70;;;;;;;;;;5050813;28;20182;-70
2023/05/30 03:19:23;;;;;;;5.77;4.03;;;;;;;;;;5038802;28;20189;-70
2023/05/30 03:21:49;;;;;;;6.67;4.63;;;;;;;;;;5033954;28;20174;-70
2023/05/30 03:24:15;;;;;;;5.30;4.67;;;;;;;;;;5031457;28;20195;-70
2023/05/30 03:26:40;;;;;;;5.53;4.27;;;;;;;;;;5032108;28;20210;-70
2023/05/30 03:29:07;;;;;;;6.37;4.53;;;;;;;;;;5049804;28;20239;-71
2023/05/30 03:31:33;;;;;;;5.73;4.30;;;;;;;;;;5049696;28;20189;-70
2023/05/30 03:33:58;;;;;;;9.03;4.30;;;;;;;;;;5051067;28;20209;-71
2023/05/30 03:36:24;;;;;;;7.07;4.00;;;;;;;;;;5051246;28;20169;-70
2023/05/30 03:38:49;;;;;;;6.57;4.10;;;;;;;;;;5039789;28;20174;-71
2023/05/30 03:41:14;;;;;;;5.83;3.80;;;;;;;;;;5031811;28;20226;-70
2023/05/30 03:43:39;;;;;;;7.23;4.23;;;;;;;;;;5032005;28;20178;-70
2023/05/30 03:46:05;;;;;;;4.87;4.03;;;;;;;;;;5049554;28;20189;-70
2023/05/30 03:48:30;;;;;;;5.77;3.90;;;;;;;;;;5049660;28;20200;-70
2023/05/30 03:50:55;;;;;;;6.57;4.70;;;;;;;;;;5032890;28;20182;-70
2023/05/30 03:53:20;;;;;;;8.27;4.93;;;;;;;;;;5051280;28;20231;-71
2023/05/30 03:55:46;;;;;;;5.37;4.53;;;;;;;;;;5028700;28;20221;-70
2023/05/30 03:58:11;;;;;;;5.87;3.90;;;;;;;;;;5008806;28;20242;-71
2023/05/30 04:00:36;;;;;;;16.53;5.30;;;;;;;;;;5007084;28;20204;-70
2023/05/30 04:03:01;;;;;;;6.57;4.43;;;;;;;;;;5011137;28;20210;-70
2023/05/30 04:05:26;;;;;;;6.40;4.30;;;;;;;;;;5008537;28;20183;-70
2023/05/30 04:07:52;;;;;;;19.03;6.17;;;;;;;;;;5009259;28;20178;-70
2023/05/30 04:10:17;;;;;;;6.63;4.13;;;;;;;;;;5010261;28;20285;-70
2023/05/30 04:12:43;;;;;;;5.63;4.57;;;;;;;;;;5002635;28;20276;-70
2023/05/30 04:15:08;;;;;;;4.43;4.03;;;;;;;;;;5008483;28;20186;-70
2023/05/30 04:17:33;;;;;;;7.23;4.70;;;;;;;;;;5002671;28;20191;-70
2023/05/30 04:19:59;;;;;;;6.53;3.93;;;;;;;;;;5005461;28;20179;-70
2023/05/30 04:22:24;;;;;;;6.33;5.10;;;;;;;;;;5007578;28;20183;-70
2023/05/30 04:24:50;;;;;;;5.80;4.23;;;;;;;;;;5007756;28;20178;-70
2023/05/30 04:27:17;;;;;;;6.87;4.73;;;;;;;;;;5012435;28;20210;-71
2023/05/30 04:29:42;;;;;;;6.97;4.63;;;;;;;;;;5010280;28;20193;-70
2023/05/30 04:32:08;;;;;;;6.20;5.13;;;;;;;;;;5009368;28;20258;-70
2023/05/30 04:34:34;;;;;;;6.43;4.93;;;;;;;;;;5003956;28;20215;-70
2023/05/30 04:37:00;;;;;;;9.73;5.20;;;;;;;;;;5010903;28;20272;-70
2023/05/30 04:39:25;;;;;;;19.77;6.73;;;;;;;;;;5009614;28;20179;-70
2023/05/30 04:41:54;;;;;;;7.23;5.00;;;;;;;;;;5007414;28;20212;-70
2023/05/30 04:44:20;;;;;;;8.13;4.50;;;;;;;;;;5008279;28;20181;-70
2023/05/30 04:46:46;;;;;;;6.67;4.07;;;;;;;;;;5009763;28;20197;-71
2023/05/30 04:49:12;;;;;;;4.67;4.07;;;;;;;;;;5011650;28;20253;-70
2023/05/30 04:51:37;;;;;;;7.97;4.37;;;;;;;;;;5014277;28;20277;-70
2023/05/30 04:54:02;;;;;;;5.93;4.70;;;;;;;;;;5011539;28;20207;-70
2023/05/30 04:56:28;;;;;;;11.33;4.93;;;;;;;;;;5002285;28;20229;-70
2023/05/30 04:58:53;;;;;;;19.47;6.03;;;;;;;;;;5007461;28;20182;-70
2023/05/30 05:01:18;;;;;;;8.30;4.40;;;;;;;;;;5004517;28;20215;-70
2023/05/30 05:03:44;;;;;;;8.43;3.83;;;;;;;;;;5007975;28;20197;-71
2023/05/30 05:06:10;;;;;;;4.70;4.03;;;;;;;;;;5008208;28;20183;-70
2023/05/30 05:08:35;;;;;;;6.60;4.30;;;;;;;;;;5003374;28;20214;-70
2023/05/30 05:11:05;;;;;;;8.53;4.13;;;;;;;;;;5007732;28;20182;-70
2023/05/30 05:13:33;;;;;;;5.83;3.83;;;;;;;;;;5008800;28;20218;-70
2023/05/30 05:16:00;;;;;;;4.30;3.90;;;;;;;;;;5009975;28;20198;-71
2023/05/30 05:18:25;;;;;;;4.13;3.47;;;;;;;;;;5009380;28;20187;-71
2023/05/30 05:20:51;;;;;;;8.63;4.20;;;;;;;;;;5008175;28;20182;-71
2023/05/30 05:23:16;;;;;;;7.30;3.80;;;;;;;;;;5015882;28;20186;-70
2023/05/30 05:25:41;;;;;;;41.53;9.77;;;;;;;;;;5009086;28;20183;-70
2023/05/30 05:28:07;;;;;;;8.00;4.80;;;;;;;;;;5009474;28;20190;-70
2023/05/30 05:30:32;;;;;;;10.37;4.93;;;;;;;;;;5014181;28;20185;-70
2023/05/30 05:32:57;;;;;;;6.83;4.60;;;;;;;;;;5013589;28;20214;-70
2023/05/30 05:35:22;;;;;;;6.57;3.97;;;;;;;;;;5010895;28;20179;-71
2023/05/30 05:37:48;;;;;;;8.03;5.40;;;;;;;;;;5013866;28;20233;-70
2023/05/30 05:40:13;;;;;;;7.03;4.10;;;;;;;;;;5013163;28;20172;-70
2023/05/30 05:42:38;;;;;;;7.97;4.70;;;;;;;;;;5011683;28;20187;-70
2023/05/30 05:45:04;;;;;;;19.60;5.70;;;;;;;;;;5011601;28;20175;-71
2023/05/30 05:47:29;;;;;;;4.90;3.93;;;;;;;;;;5008951;28;20188;-71
2023/05/30 05:49:54;;;;;;;7.70;4.00;;;;;;;;;;5011597;28;20215;-71
2023/05/30 05:52:20;;;;;;;6.13;3.90;;;;;;;;;;5007552;28;20247;-71
2023/05/30 05:54:45;;;;;;;5.47;4.63;;;;;;;;;;5009555;28;20211;-71
2023/05/30 05:57:10;;;;;;;10.93;4.23;;;;;;;;;;5043606;28;20305;-71
2023/05/30 05:59:36;;;;;;;9.70;5.00;;;;;;;;;;5048844;28;20217;-71
2023/05/30 06:02:01;;;;;;;5.03;4.07;;;;;;;;;;5049366;28;20182;-70
2023/05/30 06:04:26;;;;;;;6.03;4.37;;;;;;;;;;5031646;28;20189;-70
2023/05/30 06:06:51;;;;;;;5.33;4.00;;;;;;;;;;5034044;28;20216;-71
2023/05/30 06:09:16;;;;;;;6.93;4.23;;;;;;;;;;5034943;28;20189;-71
2023/05/30 06:11:42;;;;;;;8.80;4.43;;;;;;;;;;5034101;28;20186;-70
2023/05/30 06:14:07;;;;;;;5.67;4.40;;;;;;;;;;5040636;28;20236;-71
2023/05/30 06:16:32;;;;;;;5.87;4.13;;;;;;;;;;5029367;28;20282;-71
2023/05/30 06:18:57;;;;;;;10.13;5.70;;;;;;;;;;5047111;28;20182;-71
2023/05/30 06:21:22;;;;;;;6.63;3.90;;;;;;;;;;5032401;28;20178;-71
2023/05/30 06:23:48;;;;;;;5.50;3.83;;;;;;;;;;5050467;28;20206;-71
2023/05/30 06:26:13;;;;;;;5.33;4.30;;;;;;;;;;5033944;28;20269;-71
2023/05/30 06:28:38;;;;;;;4.00;3.47;;;;;;;;;;5034400;28;20184;-70
2023/05/30 06:31:03;;;;;;;5.97;4.20;;;;;;;;;;5034203;28;20179;-74
2023/05/30 06:33:28;;;;;;;7.03;4.17;;;;;;;;;;5037637;28;20253;-70
2023/05/30 06:35:54;;;;;;;4.70;3.60;;;;;;;;;;5046713;28;20232;-71
2023/05/30 06:38:20;;;;;;;6.63;4.80;;;;;;;;;;5050315;28;20178;-71
2023/05/30 06:40:45;;;;;;;8.53;4.60;;;;;;;;;;5037407;28;20197;-71
2023/05/30 06:43:10;;;;;;;16.70;5.77;;;;;;;;;;5047687;28;20187;-70
2023/05/30 06:45:35;;;;;;;6.10;3.50;;;;;;;;;;5033229;28;20237;-71
2023/05/30 06:48:01;;;;;;;5.60;4.80;;;;;;;;;;5050232;28;20174;-71
2023/05/30 06:50:26;;;;;;;22.23;5.77;;;;;;;;;;5049305;28;20181;-70
2023/05/30 06:52:52;;;;;;;5.50;4.23;;;;;;;;;;5033383;28;20253;-71
2023/05/30 06:55:17;;;;;;;7.20;4.30;;;;;;;;;;5036470;28;20187;-71
2023/05/30 06:57:43;;;;;;;6.60;4.07;;;;;;;;;;5047619;28;20219;-71
2023/05/30 07:00:09;;;;;;;7.47;4.57;;;;;;;;;;5030549;28;20167;-71
2023/05/30 07:02:34;;;;;;;8.07;3.93;;;;;;;;;;5050548;28;20199;-71
2023/05/30 07:05:00;;;;;;;5.47;3.83;;;;;;;;;;5048196;28;20214;-71
2023/05/30 07:07:25;;;;;;;58.40;10.70;;;;;;;;;;5046668;28;20267;-71
2023/05/30 07:09:50;;;;;;;6.17;4.20;;;;;;;;;;5033316;28;20195;-71
2023/05/30 07:12:15;;;;;;;8.60;3.90;;;;;;;;;;5047725;28;20177;-71
2023/05/30 07:14:41;;;;;;;7.13;4.00;;;;;;;;;;5033063;28;20223;-71
2023/05/30 07:17:07;;;;;;;7.37;4.20;;;;;;;;;;5049017;28;20171;-71
2023/05/30 07:19:32;;;;;;;5.43;4.13;;;;;;;;;;5052428;28;20180;-71
2023/05/30 07:21:57;;;;;;;4.87;4.37;;;;;;;;;;5039259;28;20200;-71
2023/05/30 07:24:22;;;;;;;8.17;4.60;;;;;;;;;;5031541;28;20260;-70
2023/05/30 07:26:49;;;;;;;7.20;4.03;;;;;;;;;;5027324;28;20275;-70
2023/05/30 07:29:15;;;;;;;6.43;4.33;;;;;;;;;;5033376;28;20360;-71
2023/05/30 07:31:40;;;;;;;8.50;4.17;;;;;;;;;;5031888;28;20266;-71
2023/05/30 07:34:05;;;;;;;4.93;3.90;;;;;;;;;;5047951;28;20200;-71
2023/05/30 07:36:31;;;;;;;6.27;4.30;;;;;;;;;;5051114;28;20178;-71
2023/05/30 07:38:57;;;;;;;8.77;4.43;;;;;;;;;;5049065;28;20240;-71
2023/05/30 07:41:22;;;;;;;33.17;6.67;;;;;;;;;;5047945;28;20263;-71
2023/05/30 07:43:47;;;;;;;92.23;13.87;;;;;;;;;;5034819;28;20253;-71
2023/05/30 07:46:12;;;;;;;32.87;7.37;;;;;;;;;;5048848;28;20207;-71
2023/05/30 07:48:38;;;;;;;9.37;4.50;;;;;;;;;;5039569;28;20192;-71
2023/05/30 07:51:03;;;;;;;10.80;4.70;;;;;;;;;;5049465;28;20183;-71
2023/05/30 07:53:28;;;;;;;7.67;4.30;;;;;;;;;;5048846;28;20489;-71
2023/05/30 07:55:53;;;;;;;7.37;3.90;;;;;;;;;;5031773;28;20230;-71
2023/05/30 07:58:18;;;;;;;7.80;3.73;;;;;;;;;;5007939;28;20188;-71
2023/05/30 08:00:44;;;;;;;63.23;9.30;;;;;;;;;;5001970;28;20174;-71
2023/05/30 08:03:09;;;;;;;11.90;3.83;;;;;;;;;;5022113;28;20267;-71
2023/05/30 08:05:34;;;;;;;5.40;3.83;;;;;;;;;;5007222;28;20241;-71
2023/05/30 08:08:00;;;;;;;4.37;3.97;;;;;;;;;;5004826;28;20195;-71
2023/05/30 08:10:25;;;;;;;4.60;4.00;;;;;;;;;;5004122;28;20217;-71
2023/05/30 08:12:50;;;;;;;5.83;3.63;;;;;;;;;;5006599;28;20190;-71
2023/05/30 08:15:16;;;;;;;7.67;3.77;;;;;;;;;;5005731;28;20190;-70
2023/05/30 08:17:41;;;;;;;5.77;3.40;;;;;;;;;;5007276;28;20182;-71
2023/05/30 08:20:12;;;;;;;44.07;8.70;;;;;;;;;;5007324;28;20202;-71
2023/05/30 08:22:37;;;;;;;19.20;5.00;;;;;;;;;;5004193;28;20194;-71
2023/05/30 08:25:03;;;;;;;7.10;4.17;;;;;;;;;;5007030;28;20187;-71
2023/05/30 08:27:28;;;;;;;4.70;3.60;;;;;;;;;;5011031;28;20206;-71
2023/05/30 08:29:53;;;;;;;9.00;3.90;;;;;;;;;;5002280;28;20179;-71
2023/05/30 08:32:19;;;;;;;9.73;4.10;;;;;;;;;;5009007;28;20197;-71
2023/05/30 08:34:45;;;;;;;6.70;3.90;;;;;;;;;;5009882;28;20210;-71
2023/05/30 08:37:10;;;;;;;5.00;3.80;;;;;;;;;;5004962;28;20190;-71
2023/05/30 08:39:36;;;;;;;5.03;3.77;;;;;;;;;;5007831;28;20175;-71
2023/05/30 08:42:01;;;;;;;4.53;3.90;;;;;;;;;;5004248;28;20186;-71
2023/05/30 08:44:30;;;;;;;5.73;3.90;;;;;;;;;;5009797;28;20257;-71
2023/05/30 08:46:56;;;;;;;8.80;4.43;;;;;;;;;;5007702;28;20229;-71
2023/05/30 08:49:21;;;;;;;7.10;3.50;;;;;;;;;;5007840;28;20181;-71
2023/05/30 08:51:47;;;;;;;26.67;7.27;;;;;;;;;;5010923;28;20237;-70
2023/05/30 08:54:16;;;;;;;4.73;3.53;;;;;;;;;;5007367;28;20214;-71
2023/05/30 08:56:43;;;;;;;5.47;4.03;;;;;;;;;;5020587;28;20223;-71
2023/05/30 08:59:09;;;;;;;4.37;3.60;;;;;;;;;;5029667;28;20234;-71
2023/05/30 09:01:35;;;;;;;6.03;4.27;;;;;;;;;;5030617;28;20192;-71
2023/05/30 09:04:02;;;;;;;6.53;3.40;;;;;;;;;;5033699;28;20271;-71
2023/05/30 09:06:27;;;;;;;8.40;4.07;;;;;;;;;;5032151;28;20208;-71
2023/05/30 09:08:53;;;;;;;8.50;3.97;;;;;;;;;;5032192;28;20189;-71
2023/05/30 09:11:19;;;;;;;7.37;3.87;;;;;;;;;;5032220;28;20181;-71
2023/05/30 09:13:45;;;;;;;4.80;4.07;;;;;;;;;;5030102;28;20224;-71
2023/05/30 09:16:10;;;;;;;7.30;4.20;;;;;;;;;;5032180;28;20183;-71
2023/05/30 09:18:35;;;;;;;5.93;3.73;;;;;;;;;;5033662;28;20182;-71
2023/05/30 09:21:01;;;;;;;5.37;3.50;;;;;;;;;;5032444;28;20170;-71
2023/05/30 09:23:26;;;;;;;6.00;3.60;;;;;;;;;;5031166;28;20175;-71
2023/05/30 09:25:51;;;;;;;4.40;4.00;;;;;;;;;;5033482;28;20213;-71
2023/05/30 09:28:23;;;;;;;9.07;4.10;;;;;;;;;;5030881;28;20197;-71
2023/05/30 09:30:54;;;;;;;4.00;3.40;;;;;;;;;;5030905;28;20190;-71
2023/05/30 09:33:19;;;;;;;10.47;5.07;;;;;;;;;;5026731;28;20210;-71
2023/05/30 09:35:46;;;;;;;6.33;4.17;;;;;;;;;;5031754;28;20184;-71
2023/05/30 09:38:14;;;;;;;5.10;3.57;;;;;;;;;;5040093;28;20171;-71
2023/05/30 09:40:39;;;;;;;5.67;3.33;;;;;;;;;;5030342;28;20179;-71
2023/05/30 09:43:05;;;;;;;5.90;3.37;;;;;;;;;;5031517;28;20237;-72
2023/05/30 09:45:30;;;;;;;6.50;3.60;;;;;;;;;;5026337;28;20194;-71
2023/05/30 09:47:55;;;;;;;10.17;4.37;;;;;;;;;;5029159;28;20271;-71
2023/05/30 09:50:22;;;;;;;5.70;4.30;;;;;;;;;;5031248;28;20240;-72
2023/05/30 09:52:51;;;;;;;5.83;3.70;;;;;;;;;;5035936;28;20240;-71
2023/05/30 09:55:17;;;;;;;17.13;5.67;;;;;;;;;;5030087;28;20203;-71
2023/05/30 09:57:46;;;;;;;7.17;4.60;;;;;;;;;;5010600;28;20232;-72
2023/05/30 10:00:13;;;;;;;7.83;3.83;;;;;;;;;;5010024;28;20192;-71
2023/05/30 10:02:39;;;;;;;6.00;3.63;;;;;;;;;;5003138;28;20217;-72
2023/05/30 10:05:05;;;;;;;5.13;3.70;;;;;;;;;;5012311;28;20240;-71
2023/05/30 10:07:31;;;;;;;7.67;3.93;;;;;;;;;;5011818;28;20197;-71
2023/05/30 10:09:56;;;;;;;9.03;3.40;;;;;;;;;;5011202;28;20242;-71
2023/05/30 10:12:23;;;;;;;6.03;3.80;;;;;;;;;;5006937;28;20193;-71
2023/05/30 10:14:48;;;;;;;4.37;3.70;;;;;;;;;;5004619;28;20229;-72
2023/05/30 10:17:16;;;;;;;6.87;3.87;;;;;;;;;;5009668;28;20181;-71
2023/05/30 10:19:47;;;;;;;9.13;4.27;;;;;;;;;;5009303;28;20174;-71
2023/05/30 10:22:13;;;;;;;5.43;3.30;;;;;;;;;;5013585;28;20182;-71
2023/05/30 10:24:41;;;;;;;6.43;3.60;;;;;;;;;;5011793;28;20489;-72
2023/05/30 10:27:07;;;;;;;8.67;4.20;;;;;;;;;;5006271;28;20217;-71
2023/05/30 10:29:38;;;;;;;11.30;5.17;;;;;;;;;;5005753;28;20194;-72
2023/05/30 10:32:05;;;;;;;5.63;3.70;;;;;;;;;;5007965;28;20201;-72
2023/05/30 10:34:36;;;;;;;16.93;5.10;;;;;;;;;;5010828;28;20197;-71
2023/05/30 10:37:01;;;;;;;13.30;4.07;;;;;;;;;;5007937;28;20233;-72
2023/05/30 10:39:32;;;;;;;8.23;3.97;;;;;;;;;;5006758;28;20183;-72
2023/05/30 10:42:00;;;;;;;7.30;3.30;;;;;;;;;;5006146;28;20178;-72
2023/05/30 10:44:40;;;;;;;6.57;3.70;;;;;;;;;;5007603;28;20215;-72
2023/05/30 10:47:08;;;;;;;5.55;3.67;;;;;;;;;;5007458;28;20199;-72
2023/05/30 10:49:34;;;;;;;8.02;3.85;;;;;;;;;;5006426;28;20183;-72
2023/05/30 10:52:01;;;;;;;6.47;3.80;;;;;;;;;;5011962;28;20229;-72
2023/05/30 10:54:28;;;;;;;6.55;3.80;;;;;;;;;;5007551;28;20260;-72
2023/05/30 10:56:53;;;;;;;4.22;3.83;;;;;;;;;;5033457;28;20221;-71
2023/05/30 10:59:19;;;;;;;5.72;3.60;;;;;;;;;;5037705;28;20217;-72
2023/05/30 11:02:04;;;;;;;9.00;4.10;;;;;;;;;;5044740;28;20182;-72
2023/05/30 11:04:38;;;;;;;5.10;3.35;;;;;;;;;;5049626;28;20209;-71
2023/05/30 11:07:04;;;;;;;5.65;3.22;;;;;;;;;;5044569;28;20231;-71
2023/05/30 11:09:29;;;;;;;3.90;3.08;;;;;;;;;;5034387;28;20243;-71
2023/05/30 11:11:56;;;;;;;4.28;3.03;;;;;;;;;;5049624;28;20174;-72
2023/05/30 11:14:28;;;;;;;4.65;3.72;;;;;;;;;;5045041;28;20214;-72
2023/05/30 11:16:59;;;;;;;6.50;4.00;;;;;;;;;;5031959;28;20336;-72
2023/05/30 11:19:28;;;;;;;9.27;4.22;;;;;;;;;;5044980;28;20261;-72
2023/05/30 11:21:54;;;;;;;3.67;3.33;;;;;;;;;;5044970;28;20181;-72
2023/05/30 11:24:20;;;;;;;6.55;3.97;;;;;;;;;;5044570;28;20186;-72
2023/05/30 11:26:55;;;;;;;7.10;3.70;;;;;;;;;;5036470;28;20193;-72
2023/05/30 11:29:29;;;;;;;7.97;3.80;;;;;;;;;;5035617;28;20191;-72
2023/05/30 11:31:55;;;;;;;5.93;3.90;;;;;;;;;;5050548;28;20184;-72
2023/05/30 11:34:21;;;;;;;6.60;3.58;;;;;;;;;;5034629;28;20203;-72
2023/05/30 11:36:46;;;;;;;4.78;3.45;;;;;;;;;;5045895;28;20206;-72
2023/05/30 11:39:12;;;;;;;14.10;3.80;;;;;;;;;;5025224;28;20179;-72
2023/05/30 11:41:37;;;;;;;3.78;3.20;;;;;;;;;;5048682;28;20170;-72
2023/05/30 11:44:03;;;;;;;5.32;4.03;;;;;;;;;;5047928;28;20206;-72
2023/05/30 11:46:28;;;;;;;6.28;3.90;;;;;;;;;;5033171;28;20189;-72
2023/05/30 11:48:57;;;;;;;5.72;3.63;;;;;;;;;;5047632;28;20178;-71
2023/05/30 11:51:22;;;;;;;4.45;3.83;;;;;;;;;;5027314;28;20166;-72
2023/05/30 11:53:48;;;;;;;7.03;4.00;;;;;;;;;;5046201;28;20213;-72
2023/05/30 11:56:14;;;;;;;6.32;3.85;;;;;;;;;;5027811;28;20214;-72
2023/05/30 11:58:39;;;;;;;6.00;3.17;;;;;;;;;;5046240;28;20175;-72
2023/05/30 12:01:05;;;;;;;6.30;3.40;;;;;;;;;;5050264;28;20201;-72
2023/05/30 12:03:31;;;;;;;7.03;3.65;;;;;;;;;;5046624;28;20263;-72
2023/05/30 12:05:57;;;;;;;7.03;3.30;;;;;;;;;;5049249;28;20174;-72
2023/05/30 12:08:22;;;;;;;12.18;3.63;;;;;;;;;;5045982;28;20204;-72
2023/05/30 12:10:51;;;;;;;10.07;3.83;;;;;;;;;;5041437;28;20170;-72
2023/05/30 12:13:17;;;;;;;4.35;3.38;;;;;;;;;;5046178;28;20201;-72
2023/05/30 12:15:42;;;;;;;6.10;3.65;;;;;;;;;;5046927;28;20232;-72
2023/05/30 12:18:09;;;;;;;9.43;3.83;;;;;;;;;;5046546;28;20190;-72
2023/05/30 12:20:43;;;;;;;6.05;4.15;;;;;;;;;;5050694;28;20171;-72
2023/05/30 12:23:10;;;;;;;18.40;4.57;;;;;;;;;;5048266;28;20185;-72
2023/05/30 12:25:35;;;;;;;5.20;3.67;;;;;;;;;;5049046;28;20182;-72
2023/05/30 12:28:00;;;;;;;7.70;3.67;;;;;;;;;;5046070;28;20189;-72
2023/05/30 12:30:30;;;;;;;3.67;3.25;;;;;;;;;;5043893;28;20197;-72
2023/05/30 12:32:56;;;;;;;5.45;3.72;;;;;;;;;;5031908;28;20186;-72
2023/05/30 12:35:24;;;;;;;11.65;3.88;;;;;;;;;;5040291;28;20174;-72
2023/05/30 12:37:54;;;;;;;5.30;3.65;;;;;;;;;;5031697;28;20227;-72
2023/05/30 12:40:24;;;;;;;10.98;3.97;;;;;;;;;;5049817;28;20186;-72
2023/05/30 12:42:49;;;;;;;5.47;3.10;;;;;;;;;;5031050;28;20178;-72
2023/05/30 12:45:15;;;;;;;35.08;6.60;;;;;;;;;;5049496;28;20216;-72
2023/05/30 12:47:40;;;;;;;50.55;6.95;;;;;;;;;;5028392;28;20185;-72
2023/05/30 12:50:06;;;;;;;5.47;3.40;;;;;;;;;;5049848;28;20178;-72
2023/05/30 12:52:31;;;;;;;7.43;3.72;;;;;;;;;;5034492;28;20189;-72
2023/05/30 12:54:57;;;;;;;6.85;4.32;;;;;;;;;;5033326;28;20209;-72
2023/05/30 12:57:26;;;;;;;5.47;3.47;;;;;;;;;;5012984;28;20219;-72
2023/05/30 12:59:52;;;;;;;6.40;3.90;;;;;;;;;;5008228;28;20218;-72
2023/05/30 13:02:20;;;;;;;10.50;3.38;;;;;;;;;;5003289;28;20224;-72
2023/05/30 13:04:45;;;;;;;4.93;3.47;;;;;;;;;;5015256;28;20194;-72
2023/05/30 13:07:11;;;;;;;8.25;4.30;;;;;;;;;;5006321;28;20180;-72
2023/05/30 13:09:37;;;;;;;5.63;3.65;;;;;;;;;;5005037;28;20221;-72
2023/05/30 13:12:04;;;;;;;6.57;4.35;;;;;;;;;;5006273;28;20187;-71
2023/05/30 13:14:30;;;;;;;5.75;3.33;;;;;;;;;;5007571;28;20290;-72
2023/05/30 13:16:55;;;;;;;4.60;3.58;;;;;;;;;;5008391;28;20183;-72
2023/05/30 13:19:21;;;;;;;9.30;4.10;;;;;;;;;;4999819;28;20267;-72
2023/05/30 13:21:46;;;;;;;6.32;3.60;;;;;;;;;;5000621;28;20180;-72
2023/05/30 13:24:11;;;;;;;10.02;4.32;;;;;;;;;;5005903;28;20186;-72
2023/05/30 13:26:36;;;;;;;9.90;3.92;;;;;;;;;;5008392;28;20278;-73
2023/05/30 13:29:02;;;;;;;4.88;3.65;;;;;;;;;;5009734;28;20188;-72
2023/05/30 13:31:28;;;;;;;4.93;3.33;;;;;;;;;;5009126;28;20180;-72
2023/05/30 13:33:53;;;;;;;4.90;3.28;;;;;;;;;;5008428;28;20230;-72
2023/05/30 13:36:18;;;;;;;9.27;4.40;;;;;;;;;;5007481;28;20168;-72
2023/05/30 13:38:44;;;;;;;4.95;3.05;;;;;;;;;;5007873;28;20188;-72
2023/05/30 13:41:10;;;;;;;4.22;3.72;;;;;;;;;;5009221;28;20179;-72
2023/05/30 13:43:35;;;;;;;6.05;4.18;;;;;;;;;;5006563;28;20183;-72
2023/05/30 13:46:01;;;;;;;21.05;5.30;;;;;;;;;;5006132;28;20184;-73
2023/05/30 13:48:27;;;;;;;8.50;3.63;;;;;;;;;;5009529;28;20222;-72
2023/05/30 13:50:52;;;;;;;5.53;3.88;;;;;;;;;;5005771;28;20183;-72
2023/05/30 13:53:17;;;;;;;4.63;3.85;;;;;;;;;;5010734;28;20214;-72
2023/05/30 13:55:43;;;;;;;8.98;4.10;;;;;;;;;;5018152;28;20190;-72
2023/05/30 13:58:08;;;;;;;4.43;3.22;;;;;;;;;;5049387;28;20308;-72
2023/05/30 14:00:33;;;;;;;4.78;3.53;;;;;;;;;;5050578;28;20201;-72
2023/05/30 14:03:00;;;;;;;4.47;3.28;;;;;;;;;;5050180;28;20256;-72
2023/05/30 14:05:25;;;;;;;6.00;3.53;;;;;;;;;;5035614;28;20181;-72
2023/05/30 14:07:51;;;;;;;7.28;3.38;;;;;;;;;;5030221;28;20170;-72
2023/05/30 14:10:17;;;;;;;8.82;3.88;;;;;;;;;;5047112;28;20182;-72
2023/05/30 14:12:42;;;;;;;5.88;3.70;;;;;;;;;;5031065;28;20178;-72
2023/05/30 14:15:08;;;;;;;6.68;3.97;;;;;;;;;;5026274;28;20206;-72
2023/05/30 14:17:33;;;;;;;5.57;3.58;;;;;;;;;;5048090;28;20269;-72
2023/05/30 14:19:58;;;;;;;6.45;3.72;;;;;;;;;;5049420;28;20186;-71
2023/05/30 14:22:23;;;;;;;5.65;3.40;;;;;;;;;;5032045;28;20186;-72
2023/05/30 14:24:49;;;;;;;11.35;4.20;;;;;;;;;;5049898;28;20188;-72
2023/05/30 14:27:14;;;;;;;5.40;3.67;;;;;;;;;;5051837;28;20206;-72
2023/05/30 14:29:40;;;;;;;9.57;3.90;;;;;;;;;;5045970;28;20194;-72
2023/05/30 14:32:05;;;;;;;9.60;3.88;;;;;;;;;;5033569;28;20285;-72
2023/05/30 14:34:30;;;;;;;4.82;3.00;;;;;;;;;;5035011;28;20202;-72